Saturday, August 18, 2018, 8:29 PM EDT
Back to Local

KDSV, Dansville Municipal Airport

Location: Dansville, NY, United States Lat: 42.567
Local Time: 8:29 PM EDT ( 0:29 GMT) Lon: -77.717
Time Zone: US/Eastern Elev: 662 ft

Show me the last for .
Show Decoded

2018-08-18 19:54 METAR KDSV 182354Z AUTO 00000KT 10SM BKN036 BKN043 20/16 A2997 RMK AO2 SLP155
                 T02000161 10239 20200 53009 =
2018-08-18 18:54 METAR KDSV 182254Z AUTO 34007KT 10SM CLR 21/16 A2996 RMK AO2 SLP151 T02060156 =
2018-08-18 17:54 METAR KDSV 182154Z AUTO 34006KT 10SM BKN036 22/15 A2995 RMK AO2 SLP148 T02170150
                 =
2018-08-18 16:54 METAR KDSV 182054Z AUTO 35011KT 10SM FEW030 BKN036 23/16 A2994 RMK AO2 SLP144
                 T02280156 57002 =
2018-08-18 16:46 METAR KDSV 182046Z AUTO 33010G14KT 10SM SCT030 BKN038 23/16 A2994 RMK AO2
                 T02330161 =
2018-08-18 16:37 METAR KDSV 182037Z AUTO 34006KT 10SM BKN029 BKN036 22/16 A2994 RMK AO2 T02220161
                 =
2018-08-18 15:54 METAR KDSV 181954Z AUTO 33008KT 10SM FEW028 BKN038 23/17 A2994 RMK AO2 SLP145
                 T02330167 =
2018-08-18 15:11 METAR KDSV 181911Z AUTO 32012KT 10SM FEW020 BKN038 23/17 A2995 RMK AO2 T02280172
                 =
2018-08-18 14:54 METAR KDSV 181854Z AUTO 32005KT 10SM FEW017 SCT023 BKN029 22/17 A2995 RMK AO2
                 SLP147 T02220172 =
2018-08-18 14:04 METAR KDSV 181804Z AUTO 35011KT 10SM BKN019 BKN027 OVC033 21/17 A2995 RMK AO2
                 T02110167 =
2018-08-18 13:54 METAR KDSV 181754Z AUTO 33009KT 10SM FEW025 BKN036 OVC044 22/17 A2995 RMK AO2
                 SLP147 60005 T02220172 10233 20189 53004 =
2018-08-18 12:54 METAR KDSV 181654Z AUTO 33011KT 10SM FEW021 OVC038 23/17 A2994 RMK AO2 SLP143
                 T02280172 =
2018-08-18 11:54 METAR KDSV 181554Z AUTO 35009KT 10SM FEW027 BKN038 23/18 A2994 RMK AO2 SLP143
                 T02280178 =
2018-08-18 11:22 METAR KDSV 181522Z AUTO 31011G15KT 10SM FEW016 SCT029 BKN038 23/18 A2994 RMK AO2
                 T02330183 =
2018-08-18 11:15 METAR KDSV 181515Z AUTO 33008G16KT 10SM FEW016 FEW022 BKN029 22/18 A2994 RMK AO2
                 T02220178 =
2018-08-18 10:54 METAR KDSV 181454Z AUTO 34008KT 10SM FEW021 SCT027 22/18 A2994 RMK AO2 SLP142
                 60005 T02220178 50003 =
2018-08-18 10:51 METAR KDSV 181451Z AUTO 32010KT 10SM FEW021 SCT027 22/18 A2994 RMK AO2 =
2018-08-18 09:54 METAR KDSV 181354Z AUTO 30004KT 9SM BKN016 BKN022 OVC100 20/18 A2993 RMK AO2
                 RAE41 SLP141 P0003 T02000183 =
2018-08-18 09:29 METAR KDSV 181329Z AUTO 31004KT 8SM -RA OVC016 19/18 A2993 RMK AO2 P0003
                 T01940178 =
2018-08-18 09:10 METAR KDSV 181310Z AUTO 00000KT 5SM -RA BR OVC014 19/18 A2993 RMK AO2 P0001
                 T01940178 =
2018-08-18 08:54 METAR KDSV 181254Z AUTO 31006KT 4SM -RA BR OVC015 19/18 A2993 RMK AO2
                 RAB09E25B36 SLP140 P0002 T01940178 =
2018-08-18 08:27 METAR KDSV 181227Z AUTO 30007KT 10SM BKN016 BKN025 OVC110 20/18 A2993 RMK AO2
                 RAB09E25 CIG 010V021 P0001 T02000178 =
2018-08-18 07:54 METAR KDSV 181154Z AUTO 28006KT 10SM FEW010 SCT018 OVC100 19/17 A2993 RMK AO2
                 RAE42 SLP141 P0001 60127 70144 T01890172 10211 20189 51016 =
2018-08-18 07:04 METAR KDSV 181104Z AUTO 32010KT 10SM -RA FEW009 BKN030 OVC090 19/17 A2992 RMK
                 AO2 P0000 T01890172 =
2018-08-18 06:54 METAR KDSV 181054Z AUTO 30008KT 7SM -RA FEW004 BKN020 OVC080 19/18 A2992 RMK AO2
                 SLP136 P0097 T01890178 =
2018-08-18 06:51 METAR KDSV 181051Z AUTO 31008KT 5SM -RA BR FEW006 BKN020 OVC080 19/18 A2992 RMK
                 AO2 P0097 =
2018-08-18 06:39 METAR KDSV 181039Z AUTO 32011KT 2SM +RA BR FEW004 OVC020 19/18 A2991 RMK AO2
                 P0094 T01890183 =
2018-08-18 06:27 METAR KDSV 181027Z AUTO 32010KT 1SM +RA BR SCT004 OVC014 19/18 A2990 RMK AO2
                 P0082 T01940183 =
2018-08-18 06:13 METAR KDSV 181013Z AUTO 31013KT 1SM +RA BR SCT004 OVC009 19/18 A2990 RMK AO2
                 P0045 T01940183 =
2018-08-18 06:07 METAR KDSV 181007Z AUTO 31008KT 3/4SM +RA BR BKN004 BKN008 OVC013 21/19 A2990
                 RMK AO2 P0027 T02060194 =
2018-08-18 06:00 METAR KDSV 181000Z AUTO 00000KT 1 1/2SM +RA BR FEW004 BKN008 OVC021 21/19 A2989
                 RMK AO2 P0011 T02060194 =
2018-08-18 05:54 METAR KDSV 180954Z AUTO 00000KT 5SM -RA BR SCT004 BKN013 OVC027 21/19 A2988 RMK
                 AO2 RAB11 SLP124 P0029 T02060194 =
2018-08-18 05:51 METAR KDSV 180951Z AUTO 00000KT 7SM -RA FEW004 BKN013 OVC027 21/19 A2988 RMK AO2
                 RAB11 P0027 =
2018-08-18 05:45 METAR KDSV 180945Z AUTO 00000KT 5SM -RA BR SCT013 OVC019 21/19 A2988 RMK AO2
                 RAB11 P0027 T02060194 =
2018-08-18 05:36 METAR KDSV 180936Z AUTO 00000KT 2SM -RA BR FEW010 BKN019 OVC030 21/19 A2989 RMK
                 AO2 RAB11 P0026 T02060194 =
2018-08-18 05:30 METAR KDSV 180930Z AUTO 15003KT 3/4SM +RA BR SCT010 BKN018 OVC026 21/19 A2988
                 RMK AO2 RAB11 P0025 T02060194 =
2018-08-18 05:21 METAR KDSV 180921Z AUTO 00000KT 1 3/4SM +RA BR BKN010 BKN018 OVC024 21/19 A2989
                 RMK AO2 VIS 3/4V3 RAB11 P0009 T02060194 =
2018-08-18 05:11 METAR KDSV 180911Z AUTO 18003KT 8SM -RA BKN012 OVC022 21/19 A2989 RMK AO2 RAB11
                 P0000 T02060194 =
2018-08-18 04:54 METAR KDSV 180854Z AUTO 00000KT 9SM FEW012 BKN022 OVC027 21/19 A2989 RMK AO2
                 SLP126 T02060194 56006 =
2018-08-18 04:41 METAR KDSV 180841Z AUTO 00000KT 9SM FEW004 OVC024 21/19 A2989 RMK AO2 T02060194
                 =
2018-08-18 04:22 METAR KDSV 180822Z AUTO 00000KT 8SM BKN025 BKN055 21/19 A2989 RMK AO2 T02060194
                 =
2018-08-18 04:13 METAR KDSV 180813Z AUTO 00000KT 6SM BR FEW001 SCT026 BKN055 20/19 A2989 RMK AO2
                 T02000189 =
2018-08-18 03:54 METAR KDSV 180754Z AUTO 00000KT 10SM FEW055 20/19 A2989 RMK AO2 SLP126 T02000189
                 =
2018-08-18 02:54 METAR KDSV 180654Z AUTO 17004KT 10SM OVC070 21/19 A2990 RMK AO2 SLP130 T02110194
                 =
2018-08-18 01:54 METAR KDSV 180554Z AUTO 15003KT 10SM BKN075 BKN095 21/19 A2991 RMK AO2 SLP131
                 60006 T02110194 10228 20211 56010 =
2018-08-18 00:54 METAR KDSV 180454Z AUTO 13005KT 10SM FEW017 SCT080 SCT110 22/20 A2992 RMK AO2
                 RAB00E36 SLP134 P0001 T02170200 402890206 =
2018-08-17 23:54 METAR KDSV 180354Z AUTO 13006KT 10SM FEW020 BKN090 OVC120 22/21 A2993 RMK AO2
                 RAE52 SLP137 P0002 T02220206 =
2018-08-17 22:54 METAR KDSV 180254Z AUTO 15005KT 5SM -RA BR FEW038 SCT050 OVC090 22/21 A2994 RMK
                 AO2 RAB36 SLP141 P0002 60003 T02220211 50006 =
2018-08-17 21:54 METAR KDSV 180154Z AUTO 00000KT 10SM BKN050 BKN075 22/21 A2995 RMK AO2 SLP144
                 T02220211 =
2018-08-17 20:54 METAR KDSV 180054Z AUTO 17004KT 10SM BKN070 23/21 A2993 RMK AO2 RAE08 SLP140
                 P0001 T02280211 =

Support USWX by starting your Amazon purchase here.